Terminal Aerodrome Forecast
Issued by NWS Twin Cities, MN

Home | Current Version | Previous Version | Text Only | Print | Product List | Glossary On
Versions: 1 2 3 4 5 6 7 8 9 10 11 12 13 14 15 16 17 18
000
FTUS43 KMPX 102300
TAFEAU
TAF
KEAU 102337Z 1100/1124 17008KT P6SM SCT050 BKN250
     FM111000 18008KT P6SM VCSH SCT050 OVC080
     FM111500 19012G18KT P6SM -SHRA BKN050 OVC080 PROB30 1120/1124
      4SM TSRA OVC040CB=

USA.gov is the U.S. government's official web portal to all federal, state and local government web resources and services.